createdAt,value
2018-05-16T00:00:37.983Z,96506.96
2018-05-16T00:04:01.312Z,96515.06
2018-05-16T00:07:26.147Z,96522.38
2018-05-16T00:10:49.459Z,96522.66
2018-05-16T00:14:12.805Z,96517.75
2018-05-16T00:17:36.096Z,96519.27
2018-05-16T00:20:59.495Z,96519.30
2018-05-16T00:24:23.603Z,96517.30
2018-05-16T00:27:46.896Z,96522.17
2018-05-16T00:31:10.193Z,96513.99
2018-05-16T00:34:33.509Z,96509.13
2018-05-16T00:37:56.886Z,96509.84
2018-05-16T00:41:20.202Z,96509.26
2018-05-16T00:44:45.060Z,96506.23
2018-05-16T00:48:08.405Z,96503.59
2018-05-16T00:51:32.509Z,96505.34
2018-05-16T00:54:55.855Z,96506.80
2018-05-16T00:58:19.135Z,96505.37
2018-05-16T01:01:42.563Z,96511.88
2018-05-16T01:05:05.993Z,96513.31
2018-05-16T01:08:29.271Z,96518.41
2018-05-16T01:11:52.557Z,96520.64
2018-05-16T01:15:15.877Z,96519.52
2018-05-16T01:18:40.063Z,96521.30
2018-05-16T01:22:03.365Z,96514.54
2018-05-16T01:25:26.792Z,96517.45
2018-05-16T01:28:50.126Z,96510.91
2018-05-16T01:32:14.237Z,96507.28
2018-05-16T01:35:37.515Z,96509.03
2018-05-16T01:39:00.813Z,96510.16
2018-05-16T01:42:24.141Z,96507.05
2018-05-16T01:45:47.441Z,96508.68
2018-05-16T01:49:19.793Z,96507.67
2018-05-16T01:52:43.881Z,96510.71
2018-05-16T01:56:07.201Z,96513.50
2018-05-16T01:59:30.531Z,96502.81
2018-05-16T02:02:54.625Z,96511.17
2018-05-16T02:06:17.916Z,96506.16
2018-05-16T02:09:41.261Z,96510.84
2018-05-16T02:13:04.623Z,96506.31
2018-05-16T02:16:27.899Z,96503.09
2018-05-16T02:19:51.965Z,96496.00
2018-05-16T02:23:15.286Z,96500.80
2018-05-16T02:26:38.670Z,96503.04
2018-05-16T02:30:02.791Z,96499.19
2018-05-16T02:33:26.071Z,96500.00
2018-05-16T02:36:49.356Z,96501.97
2018-05-16T02:40:12.628Z,96501.70
2018-05-16T02:43:35.923Z,96504.20
2018-05-16T02:46:59.204Z,96504.44
2018-05-16T02:50:22.500Z,96506.63
2018-05-16T02:53:45.795Z,96500.89
2018-05-16T02:57:09.123Z,96497.89
2018-05-16T03:00:32.425Z,96492.05
2018-05-16T03:03:55.980Z,96493.39
2018-05-16T03:07:19.324Z,96492.34
2018-05-16T03:10:43.586Z,96489.03
2018-05-16T03:14:06.991Z,96485.57
2018-05-16T03:17:30.297Z,96485.14
2018-05-16T03:20:58.613Z,96480.42
2018-05-16T03:24:21.991Z,96472.81
2018-05-16T03:27:46.076Z,96471.73
2018-05-16T03:31:10.188Z,96479.13
2018-05-16T03:34:33.639Z,96481.08
2018-05-16T03:37:56.974Z,96479.47
2018-05-16T03:41:20.258Z,96480.61
2018-05-16T03:44:43.553Z,96479.73
2018-05-16T03:48:06.933Z,96476.00
2018-05-16T03:51:30.277Z,96473.50
2018-05-16T03:54:53.607Z,96465.87
2018-05-16T03:58:34.565Z,96467.52
2018-05-16T04:02:15.765Z,96471.22
2018-05-16T04:05:39.964Z,96464.33
2018-05-16T04:09:03.261Z,96463.66
2018-05-16T04:12:26.635Z,96468.54
2018-05-16T04:15:57.327Z,96459.71
2018-05-16T04:19:23.813Z,96468.09
2018-05-16T04:22:47.304Z,96463.92
2018-05-16T04:26:10.568Z,96463.31
2018-05-16T04:29:33.955Z,96458.70
2018-05-16T04:32:57.318Z,96464.17
2018-05-16T04:36:24.946Z,96464.29
2018-05-16T04:39:48.442Z,96464.02
2018-05-16T04:43:11.723Z,96460.61
2018-05-16T04:46:35.011Z,96459.47
2018-05-16T04:49:58.397Z,96457.59
2018-05-16T04:53:23.309Z,96454.67
2018-05-16T04:56:46.611Z,96460.77
2018-05-16T05:00:09.881Z,96458.66
2018-05-16T05:03:33.187Z,96456.20
2018-05-16T05:06:56.601Z,96455.79
2018-05-16T05:10:20.696Z,96457.41
2018-05-16T05:13:44.050Z,96455.75
2018-05-16T05:17:07.321Z,96459.16
2018-05-16T05:20:30.607Z,96457.58
2018-05-16T05:23:54.714Z,96453.97
2018-05-16T05:27:18.049Z,96458.98
2018-05-16T05:30:42.157Z,96462.31
2018-05-16T05:34:05.487Z,96452.36
2018-05-16T05:37:29.605Z,96447.42
2018-05-16T05:40:52.951Z,96450.88
2018-05-16T05:44:16.306Z,96449.96
2018-05-16T05:47:39.659Z,96448.36
2018-05-16T05:51:03.004Z,96446.70
2018-05-16T05:54:26.344Z,96458.59
2018-05-16T05:57:50.524Z,96456.27
2018-05-16T06:01:13.849Z,96457.06
2018-05-16T06:04:37.954Z,96460.58
2018-05-16T06:08:01.249Z,96463.91
2018-05-16T06:11:24.522Z,96455.30
2018-05-16T06:14:48.701Z,96460.08
2018-05-16T06:18:12.085Z,96464.37
2018-05-16T06:21:36.207Z,96459.47
2018-05-16T06:24:59.490Z,96457.10
2018-05-16T06:28:22.859Z,96459.17
2018-05-16T06:31:46.203Z,96460.73
2018-05-16T06:35:09.557Z,96456.08
2018-05-16T06:38:34.125Z,96460.91
2018-05-16T06:41:58.236Z,96453.65
2018-05-16T06:45:22.333Z,96460.81
2018-05-16T06:48:45.750Z,96459.34
2018-05-16T06:52:10.080Z,96476.08
2018-05-16T06:55:33.427Z,96472.47
2018-05-16T06:58:56.768Z,96481.11
2018-05-16T07:02:20.139Z,96485.03
2018-05-16T07:05:43.481Z,96487.22
2018-05-16T07:09:06.833Z,96490.83
2018-05-16T07:12:30.113Z,96499.06
2018-05-16T07:15:54.240Z,96494.69
2018-05-16T07:19:18.330Z,96496.73
2018-05-16T07:22:42.457Z,96491.16
2018-05-16T07:26:05.795Z,96492.70
2018-05-16T07:29:29.183Z,96491.81
2018-05-16T07:32:52.510Z,96491.21
2018-05-16T07:36:15.795Z,96491.77
2018-05-16T07:39:39.098Z,96486.64
2018-05-16T07:43:02.437Z,96491.58
2018-05-16T07:46:26.553Z,96489.81
2018-05-16T07:49:49.882Z,96489.30
2018-05-16T07:53:13.190Z,96485.61
2018-05-16T07:56:36.543Z,96495.77
2018-05-16T07:59:59.857Z,96494.17
2018-05-16T08:03:23.188Z,96494.94
2018-05-16T08:06:46.531Z,96496.56
2018-05-16T08:10:10.839Z,96492.22
2018-05-16T08:13:34.189Z,96491.48
2018-05-16T08:16:57.527Z,96497.75
2018-05-16T08:20:21.637Z,96496.63
2018-05-16T08:23:45.057Z,96503.15
2018-05-16T08:27:08.390Z,96501.60
2018-05-16T08:30:31.699Z,96501.94
2018-05-16T08:33:55.146Z,96489.78
2018-05-16T08:37:18.487Z,96498.88
2018-05-16T08:40:41.846Z,96502.36
2018-05-16T08:44:05.132Z,96509.71
2018-05-16T08:47:28.485Z,96511.23
2018-05-16T08:50:51.783Z,96510.95
2018-05-16T08:54:15.107Z,96511.13
2018-05-16T08:57:38.485Z,96521.05
2018-05-16T09:01:01.777Z,96520.08
2018-05-16T09:04:25.119Z,96524.78
2018-05-16T09:07:48.537Z,96522.30
2018-05-16T09:11:11.877Z,96521.23
2018-05-16T09:14:36.007Z,96517.72
2018-05-16T09:17:59.389Z,96522.17
2018-05-16T09:21:23.506Z,96531.48
2018-05-16T09:24:47.106Z,96533.80
2018-05-16T09:28:10.435Z,96526.20
2018-05-16T09:31:33.827Z,96541.23
2018-05-16T09:34:57.962Z,96534.35
2018-05-16T09:38:21.332Z,96538.23
2018-05-16T09:41:45.791Z,96543.22
2018-05-16T09:45:09.830Z,96545.15
2018-05-16T09:48:33.125Z,96543.95
2018-05-16T09:51:56.493Z,96548.34
2018-05-16T09:55:19.879Z,96554.59
2018-05-16T09:58:43.974Z,96543.00
2018-05-16T10:02:07.363Z,96549.98
2018-05-16T10:05:30.715Z,96550.86
2018-05-16T10:08:54.062Z,96555.58
2018-05-16T10:12:17.344Z,96554.78
2018-05-16T10:15:41.434Z,96547.94
2018-05-16T10:19:04.730Z,96545.06
2018-05-16T10:22:28.014Z,96546.89
2018-05-16T10:25:51.310Z,96548.19
2018-05-16T10:29:14.580Z,96555.17
2018-05-16T10:32:37.866Z,96558.96
2018-05-16T10:36:01.188Z,96554.35
2018-05-16T10:39:25.235Z,96551.58
2018-05-16T10:42:49.781Z,96552.95
2018-05-16T10:46:13.850Z,96555.78
2018-05-16T10:49:37.142Z,96560.20
2018-05-16T10:53:04.180Z,96556.47
2018-05-16T10:56:27.473Z,96556.67
2018-05-16T10:59:52.888Z,96550.77
2018-05-16T11:03:17.328Z,96564.60
2018-05-16T11:06:41.353Z,96567.95
2018-05-16T11:10:05.396Z,96565.78
2018-05-16T11:13:36.606Z,96572.89
2018-05-16T11:17:00.042Z,96571.88
2018-05-16T11:20:23.408Z,96570.31
2018-05-16T11:23:46.748Z,96581.05
2018-05-16T11:27:10.106Z,96575.42
2018-05-16T11:30:37.622Z,96582.70
2018-05-16T11:34:00.976Z,96576.50
2018-05-16T11:37:24.498Z,96582.45
2018-05-16T11:40:48.570Z,96581.47
2018-05-16T11:44:11.900Z,96582.58
2018-05-16T11:47:35.192Z,96591.86
2018-05-16T11:50:58.546Z,96590.02
2018-05-16T11:54:21.833Z,96586.41
2018-05-16T11:57:45.245Z,96583.75
2018-05-16T12:01:08.533Z,96587.34
2018-05-16T12:04:32.642Z,96587.64
2018-05-16T12:07:56.005Z,96581.41
2018-05-16T12:11:19.392Z,96586.00
2018-05-16T12:14:43.794Z,96589.88
2018-05-16T12:18:07.870Z,96595.59
2018-05-16T12:21:31.174Z,96591.19
2018-05-16T12:24:54.438Z,96592.06
2018-05-16T12:28:17.740Z,96585.13
2018-05-16T12:31:41.116Z,96591.02
2018-05-16T12:35:05.192Z,96590.37
2018-05-16T12:38:29.450Z,96587.13
2018-05-16T12:41:52.802Z,96592.35
2018-05-16T12:45:18.170Z,96594.55
2018-05-16T12:48:41.447Z,96598.66
2018-05-16T12:52:04.863Z,96599.89
2018-05-16T12:55:28.220Z,96599.85
2018-05-16T12:58:51.576Z,96608.45
2018-05-16T13:02:14.848Z,96601.30
2018-05-16T13:05:38.151Z,96601.02
2018-05-16T13:09:01.662Z,96601.73
2018-05-16T13:12:25.051Z,96602.03
2018-05-16T13:15:49.183Z,96599.35
2018-05-16T13:19:12.571Z,96601.59
2018-05-16T13:22:36.697Z,96605.23
2018-05-16T13:26:00.033Z,96609.93
2018-05-16T13:29:24.220Z,96609.88
2018-05-16T13:32:48.529Z,96615.13
2018-05-16T13:36:12.620Z,96611.69
2018-05-16T13:39:35.949Z,96604.07
2018-05-16T13:42:59.290Z,96608.18
2018-05-16T13:46:22.590Z,96603.95
2018-05-16T13:49:45.871Z,96603.84
2018-05-16T13:53:09.245Z,96600.65
2018-05-16T13:56:33.376Z,96595.77
2018-05-16T13:59:56.683Z,96596.12
2018-05-16T14:03:20.729Z,96591.67
2018-05-16T14:06:43.995Z,96579.56
2018-05-16T14:10:08.105Z,96584.64
2018-05-16T14:13:31.420Z,96574.93
2018-05-16T14:16:54.707Z,96578.33
2018-05-16T14:20:19.561Z,96578.09
2018-05-16T14:23:42.836Z,96574.22
2018-05-16T14:27:06.195Z,96579.61
2018-05-16T14:30:29.469Z,96582.45
2018-05-16T14:33:52.815Z,96591.42
2018-05-16T14:37:16.980Z,96594.02
2018-05-16T14:40:41.101Z,96591.63
2018-05-16T14:47:27.935Z,96598.09
2018-05-16T14:50:51.223Z,96592.45
2018-05-16T14:54:14.521Z,96594.36
2018-05-16T14:57:37.872Z,96596.66
2018-05-16T15:01:01.254Z,96591.73
2018-05-16T15:04:24.616Z,96591.75
2018-05-16T15:07:48.697Z,96593.39
2018-05-16T15:11:12.022Z,96585.69
2018-05-16T15:14:35.324Z,96584.01
2018-05-16T15:17:58.684Z,96574.77
2018-05-16T15:21:22.061Z,96579.53
2018-05-16T15:24:46.888Z,96573.64
2018-05-16T15:28:10.224Z,96580.48
2018-05-16T15:31:34.297Z,96582.82
2018-05-16T15:34:57.631Z,96580.21
2018-05-16T15:38:20.917Z,96582.02
2018-05-16T15:41:44.305Z,96579.55
2018-05-16T15:45:08.362Z,96579.15
2018-05-16T15:48:31.683Z,96578.19
2018-05-16T15:51:56.419Z,96576.06
2018-05-16T15:55:20.815Z,96570.70
2018-05-16T15:58:45.507Z,96578.73
2018-05-16T16:02:08.967Z,96573.39
2018-05-16T16:05:33.899Z,96570.30
2018-05-16T16:08:57.356Z,96569.87
2018-05-16T16:12:21.788Z,96565.40
2018-05-16T16:16:01.304Z,96561.55
2018-05-16T16:19:25.689Z,96558.33
2018-05-16T16:22:48.994Z,96567.72
2018-05-16T16:26:12.669Z,96559.56
2018-05-16T16:29:36.795Z,96559.83
2018-05-16T16:33:00.080Z,96562.79
2018-05-16T16:36:23.584Z,96570.05
2018-05-16T16:39:46.959Z,96571.61
2018-05-16T16:43:10.279Z,96576.15
2018-05-16T16:46:34.592Z,96573.39
2018-05-16T16:49:57.879Z,96577.48
2018-05-16T16:53:21.865Z,96577.27
2018-05-16T16:56:46.818Z,96578.50
2018-05-16T17:00:12.122Z,96581.68
2018-05-16T17:03:36.575Z,96582.69
2018-05-16T17:07:00.804Z,96585.67
2018-05-16T17:10:24.914Z,96582.31
2018-05-16T17:13:49.072Z,96584.53
2018-05-16T17:17:12.511Z,96588.95
2018-05-16T17:20:35.930Z,96586.72
2018-05-16T17:24:00.036Z,96590.42
2018-05-16T17:27:24.359Z,96592.34
2018-05-16T17:30:48.991Z,96594.05
2018-05-16T17:34:13.482Z,96590.32
2018-05-16T17:37:37.542Z,96590.88
2018-05-16T17:41:01.514Z,96602.77
2018-05-16T17:44:25.657Z,96598.96
2018-05-16T17:47:49.766Z,96601.81
2018-05-16T17:51:13.118Z,96601.27
2018-05-16T17:54:36.651Z,96609.48
2018-05-16T17:58:00.045Z,96610.89
2018-05-16T18:01:24.094Z,96609.22
2018-05-16T18:04:47.443Z,96607.41
2018-05-16T18:08:10.902Z,96607.83
2018-05-16T18:11:34.945Z,96602.32
2018-05-16T18:15:22.955Z,96612.62
2018-05-16T18:18:46.287Z,96605.80
2018-05-16T18:22:09.610Z,96607.23
2018-05-16T18:25:32.980Z,96602.01
2018-05-16T18:28:56.315Z,96607.34
2018-05-16T18:32:46.762Z,96616.70
2018-05-16T18:36:10.316Z,96617.98
2018-05-16T18:39:35.177Z,96619.89
2018-05-16T18:42:58.535Z,96620.25
2018-05-16T18:46:21.871Z,96620.84
2018-05-16T18:49:45.163Z,96619.38
2018-05-16T18:53:08.462Z,96619.45
2018-05-16T18:56:31.814Z,96627.95
2018-05-16T18:59:55.238Z,96631.16
2018-05-16T19:03:18.522Z,96625.92
2018-05-16T19:06:41.800Z,96637.33
2018-05-16T19:10:05.152Z,96638.81
2018-05-16T19:13:29.279Z,96649.19
2018-05-16T19:16:53.334Z,96644.31
2018-05-16T19:20:16.690Z,96647.98
2018-05-16T19:23:40.049Z,96661.22
2018-05-16T19:27:03.422Z,96661.27
2018-05-16T19:30:26.795Z,96666.92
2018-05-16T19:33:50.853Z,96667.67
2018-05-16T19:37:14.234Z,96665.42
2018-05-16T19:40:38.515Z,96670.56
2018-05-16T19:44:01.786Z,96679.63
2018-05-16T19:47:25.083Z,96684.51
2018-05-16T19:50:48.514Z,96681.10
2018-05-16T19:54:11.855Z,96688.39
2018-05-16T19:57:35.214Z,96681.80
2018-05-16T20:00:58.504Z,96684.75
2018-05-16T20:04:21.850Z,96680.04
2018-05-16T20:07:45.154Z,96679.09
2018-05-16T20:11:08.616Z,96680.88
2018-05-16T20:14:32.054Z,96677.72
2018-05-16T20:17:56.133Z,96677.58
2018-05-16T20:21:20.644Z,96680.63
2018-05-16T20:24:44.811Z,96679.74
2018-05-16T20:28:08.937Z,96688.41
2018-05-16T20:31:34.040Z,96685.24
2018-05-16T20:34:57.339Z,96690.97
2018-05-16T20:38:20.700Z,96690.27
2018-05-16T20:41:44.118Z,96685.77
2018-05-16T20:45:07.498Z,96685.94
2018-05-16T20:48:31.659Z,96687.31
2018-05-16T20:51:55.790Z,96689.53
2018-05-16T20:55:19.127Z,96689.59
2018-05-16T20:58:42.407Z,96690.88
2018-05-16T21:02:07.219Z,96689.58
2018-05-16T21:05:30.496Z,96691.53
2018-05-16T21:08:53.807Z,96698.94
2018-05-16T21:12:17.166Z,96702.66
2018-05-16T21:15:40.504Z,96700.77
2018-05-16T21:19:03.805Z,96699.75
2018-05-16T21:22:27.214Z,96711.41
2018-05-16T21:25:50.533Z,96713.61
2018-05-16T21:29:14.596Z,96722.50
2018-05-16T21:32:37.889Z,96724.98
2018-05-16T21:36:01.234Z,96723.56
2018-05-16T21:39:24.515Z,96725.20
2018-05-16T21:42:47.786Z,96715.98
2018-05-16T21:46:11.173Z,96732.34
2018-05-16T21:49:34.581Z,96730.57
2018-05-16T21:52:57.875Z,96733.55
2018-05-16T21:56:21.168Z,96737.82
2018-05-16T21:59:44.513Z,96740.49
2018-05-16T22:03:07.864Z,96749.61
2018-05-16T22:06:31.166Z,96751.73
2018-05-16T22:09:54.501Z,96753.60
2018-05-16T22:13:17.824Z,96750.62
2018-05-16T22:16:42.688Z,96749.78
2018-05-16T22:20:05.989Z,96751.58
2018-05-16T22:23:29.321Z,96750.69
2018-05-16T22:26:52.607Z,96749.54
2018-05-16T22:30:15.223Z,96750.31
2018-05-16T22:33:45.536Z,96752.40
2018-05-16T22:37:16.180Z,96748.81
2018-05-16T22:40:45.854Z,96742.52
2018-05-16T22:44:15.416Z,96741.09
2018-05-16T22:47:38.689Z,96738.25
2018-05-16T22:51:02.792Z,96730.98
2018-05-16T22:54:26.142Z,96733.45
2018-05-16T22:57:49.500Z,96741.44
2018-05-16T23:01:12.798Z,96730.19
2018-05-16T23:04:36.152Z,96726.74
2018-05-16T23:07:59.516Z,96731.22
2018-05-16T23:11:22.802Z,96730.52
2018-05-16T23:14:46.139Z,96731.92
2018-05-16T23:18:09.443Z,96730.76
2018-05-16T23:21:32.720Z,96734.42
2018-05-16T23:24:56.069Z,96723.52
2018-05-16T23:28:19.494Z,96722.77
2018-05-16T23:31:42.779Z,96716.41
2018-05-16T23:35:06.146Z,96713.00
2018-05-16T23:38:29.511Z,96715.76
2018-05-16T23:41:52.858Z,96715.84
2018-05-16T23:45:16.141Z,96705.73
2018-05-16T23:48:39.430Z,96709.21
2018-05-16T23:52:02.805Z,96721.32
2018-05-16T23:55:26.170Z,96710.89
2018-05-16T23:58:50.291Z,96709.75
